Time;durP1;ratioP1;P1;durP2;ratioP2;P2;SDS_P1;SDS_P2;PMS_P1;PMS_P2;Temp;Humidity;BMP_temperature;BMP_pressure;BME280_temperature;BME280_humidity;BME280_pressure;Samples;Min_cycle;Max_cycle;Signal;HPM_P1;HPM_P2
2022/01/19 00:01:35;;;;;;;38.80;13.40;;;4.40;99.90;;;;;;5098629;28;20031;-67
2022/01/19 00:04:03;;;;;;;49.35;16.20;;;4.30;99.90;;;;;;5064337;28;20020;-66
2022/01/19 00:06:31;;;;;;;31.77;12.07;;;4.20;99.90;;;;;;5098989;28;20016;-67
2022/01/19 00:08:58;;;;;;;26.50;11.18;;;4.00;99.90;;;;;;5080649;28;20112;-66
2022/01/19 00:11:26;;;;;;;22.00;8.63;;;3.90;99.90;;;;;;5098599;28;20411;-67
2022/01/19 00:13:54;;;;;;;30.20;10.10;;;3.80;99.90;;;;;;5097884;28;20036;-67
2022/01/19 00:16:21;;;;;;;19.73;8.60;;;3.60;99.90;;;;;;5097775;28;20043;-66
2022/01/19 00:18:49;;;;;;;19.85;8.55;;;3.50;99.90;;;;;;5080286;28;20065;-66
2022/01/19 00:21:16;;;;;;;24.67;10.85;;;3.40;99.90;;;;;;5097326;28;20032;-66
2022/01/19 00:23:44;;;;;;;25.48;9.07;;;3.20;99.90;;;;;;5097427;28;20044;-66
2022/01/19 00:26:11;;;;;;;26.05;8.68;;;3.10;99.90;;;;;;5097673;28;20054;-66
2022/01/19 00:28:38;;;;;;;21.35;8.55;;;3.00;99.90;;;;;;5097719;28;20048;-66
2022/01/19 00:31:05;;;;;;;25.40;10.13;;;2.90;99.90;;;;;;5097228;28;20021;-66
2022/01/19 00:33:33;;;;;;;23.55;10.13;;;2.80;99.90;;;;;;5097457;28;20019;-66
2022/01/19 00:36:00;;;;;;;23.75;8.25;;;2.70;99.90;;;;;;5097144;28;20024;-66
2022/01/19 00:38:27;;;;;;;26.50;9.25;;;2.60;99.90;;;;;;5079770;28;20096;-66
2022/01/19 00:40:57;;;;;;;22.98;8.88;;;2.50;99.90;;;;;;5098329;28;20312;-66
2022/01/19 00:43:25;;;;;;;28.75;8.82;;;2.40;99.90;;;;;;5098052;28;20027;-66
2022/01/19 00:45:52;;;;;;;26.02;9.43;;;2.30;99.90;;;;;;5098051;28;20024;-66
2022/01/19 00:48:19;;;;;;;26.67;9.15;;;2.20;99.90;;;;;;5080139;28;20052;-66
2022/01/19 00:50:46;;;;;;;29.45;9.27;;;2.20;99.90;;;;;;5097984;28;20020;-66
2022/01/19 00:53:13;;;;;;;31.45;8.82;;;2.10;99.90;;;;;;5063435;28;20028;-66
2022/01/19 00:55:41;;;;;;;31.25;10.15;;;2.00;99.90;;;;;;5097951;28;20028;-66
2022/01/19 00:58:08;;;;;;;31.55;10.00;;;2.00;99.90;;;;;;5062950;28;20070;-66
2022/01/19 01:00:35;;;;;;;25.42;9.85;;;1.90;99.90;;;;;;5078971;28;20052;-66
2022/01/19 01:03:04;;;;;;;22.55;8.73;;;1.80;99.90;;;;;;5062420;28;20419;-66
2022/01/19 01:05:32;;;;;;;24.02;8.90;;;1.70;99.90;;;;;;5096741;28;20028;-66
2022/01/19 01:07:59;;;;;;;22.15;8.30;;;1.70;99.90;;;;;;5097050;28;20023;-66
2022/01/19 01:10:27;;;;;;;24.25;9.73;;;1.70;99.90;;;;;;5097022;28;20049;-66
2022/01/19 01:13:05;;;;;;;30.52;8.90;;;1.60;99.90;;;;;;5097010;28;20052;-66
2022/01/19 01:15:48;;;;;;;28.98;10.00;;;1.50;99.90;;;;;;5080969;28;20107;-66
2022/01/19 01:18:19;;;;;;;27.88;9.07;;;1.40;99.90;;;;;;5096509;28;20051;-66
2022/01/19 01:20:53;;;;;;;30.95;9.15;;;1.40;99.90;;;;;;5097051;28;20107;-66
2022/01/19 01:23:23;;;;;;;21.38;8.05;;;1.30;99.90;;;;;;5097657;28;20036;-66
2022/01/19 01:25:51;;;;;;;31.70;10.57;;;1.20;99.90;;;;;;5102945;28;20020;-66
2022/01/19 01:28:18;;;;;;;31.10;8.95;;;1.20;99.90;;;;;;5104278;28;20020;-66
2022/01/19 01:30:47;;;;;;;20.48;8.25;;;1.10;99.90;;;;;;5104521;28;20023;-66
2022/01/19 01:33:14;;;;;;;25.17;7.60;;;1.10;99.90;;;;;;5104663;28;20106;-66
2022/01/19 01:35:41;;;;;;;29.17;8.57;;;1.00;99.90;;;;;;5104383;28;20416;-66
2022/01/19 01:38:09;;;;;;;22.58;8.65;;;1.00;99.90;;;;;;5104388;28;20051;-66
2022/01/19 01:40:37;;;;;;;26.33;8.65;;;0.90;99.90;;;;;;5086021;28;20024;-66
2022/01/19 01:43:08;;;;;;;19.75;8.10;;;0.90;99.90;;;;;;5085364;28;20039;-66
2022/01/19 01:45:40;;;;;;;26.15;8.57;;;0.80;99.90;;;;;;5085165;28;20111;-66
2022/01/19 01:48:13;;;;;;;21.17;8.35;;;0.70;99.90;;;;;;5102954;28;20023;-66
2022/01/19 01:53:41;;;;;;;25.20;7.80;;;0.60;99.90;;;;;;5103251;28;20450;-66
2022/01/19 01:56:16;;;;;;;23.25;7.22;;;0.50;99.90;;;;;;5103061;28;20446;-66
2022/01/19 01:58:49;;;;;;;21.58;8.40;;;0.50;99.90;;;;;;5103665;28;20020;-66
2022/01/19 02:01:17;;;;;;;24.10;9.45;;;0.50;99.90;;;;;;5102830;28;20059;-66
2022/01/19 02:03:45;;;;;;;26.75;8.85;;;0.50;99.90;;;;;;5104048;28;20099;-66
2022/01/19 02:06:29;;;;;;;29.02;8.57;;;0.40;99.90;;;;;;5085834;28;20024;-66
2022/01/19 02:15:47;;;;;;;29.48;9.05;;;0.30;99.90;;;;;;5086507;28;20024;-66
2022/01/19 02:23:16;;;;;;;23.35;8.02;;;0.20;99.90;;;;;;5102975;28;20070;-66
2022/01/19 02:25:45;;;;;;;29.33;9.25;;;0.20;99.90;;;;;;5103062;28;20082;-66
2022/01/19 02:36:36;;;;;;;25.45;9.55;;;0.10;99.90;;;;;;5100727;28;20039;-66
2022/01/19 02:41:51;;;;;;;;;;;0.00;99.90;;;;;;5100198;28;20455;-66
2022/01/19 02:49:55;;;;;;;31.35;8.93;;;-0.10;99.90;;;;;;5100298;28;20016;-66
2022/01/19 02:52:23;;;;;;;26.63;8.45;;;-0.10;99.90;;;;;;5100103;28;20032;-66
2022/01/19 02:54:51;;;;;;;21.73;8.10;;;-0.20;99.90;;;;;;5100027;28;20028;-66
2022/01/19 02:57:24;;;;;;;27.85;9.93;;;-0.20;99.90;;;;;;5100277;28;20024;-66
2022/01/19 03:10:38;;;;;;;39.88;10.93;;;-0.30;99.90;;;;;;5099239;28;20023;-66
2022/01/19 03:13:05;;;;;;;28.45;9.30;;;-0.30;99.90;;;;;;5064243;28;20031;-66
2022/01/19 03:15:33;;;;;;;34.08;9.48;;;-0.30;99.90;;;;;;5080826;28;20020;-66
2022/01/19 03:18:01;;;;;;;32.47;9.25;;;-0.30;99.90;;;;;;5098982;28;20024;-66
2022/01/19 03:20:29;;;;;;;30.00;9.75;;;-0.30;99.90;;;;;;5098564;28;20073;-66
2022/01/19 03:23:04;;;;;;;38.17;9.63;;;-0.30;99.90;;;;;;5098467;28;20122;-66
2022/01/19 03:25:37;;;;;;;30.85;10.15;;;-0.40;99.90;;;;;;5098485;28;20024;-66
2022/01/19 03:28:06;;;;;;;38.75;9.25;;;-0.40;99.90;;;;;;5100204;28;20024;-66
2022/01/19 03:30:34;;;;;;;39.85;11.40;;;-0.40;99.90;;;;;;5099410;28;20081;-66
2022/01/19 03:33:02;;;;;;;28.02;9.30;;;-0.50;99.90;;;;;;5081465;28;20055;-66
2022/01/19 03:35:29;;;;;;;39.08;10.40;;;-0.50;99.90;;;;;;5099374;28;20035;-66
2022/01/19 03:37:56;;;;;;;24.70;10.15;;;-0.50;99.90;;;;;;5081850;28;20016;-66
2022/01/19 03:40:24;;;;;;;31.60;9.88;;;-0.50;99.90;;;;;;5099677;28;20359;-66
2022/01/19 03:42:51;;;;;;;43.70;9.13;;;-0.60;99.90;;;;;;5081233;28;20024;-66
2022/01/19 03:45:19;;;;;;;28.63;8.60;;;-0.60;99.90;;;;;;5099583;28;20353;-66
2022/01/19 03:47:54;;;;;;;30.30;10.18;;;-0.60;99.90;;;;;;5080079;28;20325;-66
2022/01/19 03:50:22;;;;;;;23.85;8.55;;;-0.60;99.90;;;;;;5098418;28;20020;-66
2022/01/19 03:52:50;;;;;;;26.77;8.45;;;-0.70;99.90;;;;;;5080593;28;20107;-66
2022/01/19 03:55:17;;;;;;;33.10;8.35;;;-0.70;99.90;;;;;;5097931;28;20400;-66
2022/01/19 03:57:45;;;;;;;30.85;9.05;;;-0.70;99.90;;;;;;5097928;28;20031;-66
2022/01/19 04:00:14;;;;;;;29.55;9.73;;;-0.70;99.90;;;;;;5098414;28;20023;-66
2022/01/19 04:02:42;;;;;;;24.00;8.10;;;-0.70;99.90;;;;;;5097998;28;20443;-66
2022/01/19 04:05:18;;;;;;;23.45;8.13;;;-0.80;99.90;;;;;;5098333;28;20016;-66
2022/01/19 04:07:46;;;;;;;28.85;8.20;;;-0.80;99.90;;;;;;5082323;28;20032;-66
2022/01/19 04:10:14;;;;;;;24.88;9.00;;;-0.80;99.90;;;;;;5080605;28;20439;-66
2022/01/19 04:12:43;;;;;;;27.35;7.88;;;-0.90;99.90;;;;;;5099367;28;20412;-66
2022/01/19 04:15:12;;;;;;;24.10;7.68;;;-0.90;99.90;;;;;;5098490;28;20024;-66
2022/01/19 04:17:45;;;;;;;20.10;7.85;;;-0.90;99.90;;;;;;5099149;28;20034;-66
2022/01/19 04:20:13;;;;;;;21.38;7.13;;;-0.90;99.90;;;;;;5081574;28;20374;-66
2022/01/19 04:22:41;;;;;;;22.63;8.45;;;-0.90;99.90;;;;;;5077090;28;20055;-66
2022/01/19 04:25:08;;;;;;;21.95;7.43;;;-0.90;99.90;;;;;;5060387;28;20328;-66
2022/01/19 04:27:37;;;;;;;18.13;6.88;;;-0.90;99.90;;;;;;5077842;28;20332;-66
2022/01/19 04:30:11;;;;;;;25.65;6.90;;;-1.00;99.90;;;;;;5076039;28;20116;-66
2022/01/19 04:35:30;;;;;;;22.70;6.93;;;-0.90;99.90;;;;;;5077240;28;20358;-66
2022/01/19 04:54:36;;;;;;;30.93;9.77;;;-0.80;99.90;;;;;;5077843;28;20098;-66
2022/01/19 05:01:40;;;;;;;;;;;-0.60;99.90;;;;;;5076971;28;20443;-66
2022/01/19 05:13:37;;;;;;;27.70;9.63;;;0.20;99.90;;;;;;5077104;28;20078;-66
2022/01/19 05:15:54;;;;;;;28.40;10.18;;;0.30;99.90;;;;;;5070322;28;20480;-66
2022/01/19 05:18:22;;;;;;;21.88;10.52;;;0.50;99.90;;;;;;5076642;28;20033;-66
2022/01/19 05:20:49;;;;;;;29.38;13.25;;;0.70;99.90;;;;;;5076317;28;20107;-66
2022/01/19 05:23:17;;;;;;;24.48;10.95;;;0.90;99.90;;;;;;5075142;28;20127;-66
2022/01/19 05:25:45;;;;;;;24.35;11.73;;;1.10;99.90;;;;;;5076362;28;20028;-66
2022/01/19 05:28:12;;;;;;;25.65;11.25;;;1.30;99.90;;;;;;5075279;28;20336;-66
2022/01/19 05:30:40;;;;;;;22.10;10.30;;;1.50;99.90;;;;;;5076356;28;20435;-66
2022/01/19 05:33:07;;;;;;;20.02;10.60;;;1.60;99.90;;;;;;5077310;28;20056;-66
2022/01/19 05:35:34;;;;;;;18.45;10.48;;;1.70;99.90;;;;;;5077505;28;20033;-66
2022/01/19 05:38:02;;;;;;;17.17;9.70;;;1.80;99.90;;;;;;5076749;28;20112;-66
2022/01/19 05:40:29;;;;;;;20.13;9.73;;;1.80;99.90;;;;;;5077102;28;20376;-66
2022/01/19 05:42:57;;;;;;;23.27;10.60;;;1.90;99.90;;;;;;5077855;28;20020;-66
2022/01/19 05:45:24;;;;;;;14.00;8.05;;;1.90;99.90;;;;;;5077081;28;20024;-66
2022/01/19 05:47:52;;;;;;;13.77;6.38;;;1.90;99.90;;;;;;5077198;28;20452;-66
2022/01/19 05:50:19;;;;;;;14.75;7.68;;;2.00;99.90;;;;;;5077638;28;20047;-66
2022/01/19 05:52:46;;;;;;;16.90;8.65;;;2.00;99.90;;;;;;5077306;28;20103;-66
2022/01/19 05:55:14;;;;;;;14.75;8.85;;;2.00;99.90;;;;;;5058325;28;20472;-66
2022/01/19 05:57:41;;;;;;;11.93;6.93;;;2.00;99.90;;;;;;5058582;28;20101;-66
2022/01/19 06:00:09;;;;;;;12.60;6.88;;;2.00;99.90;;;;;;5076034;28;20324;-66
2022/01/19 06:02:37;;;;;;;14.35;7.65;;;2.10;99.90;;;;;;5076273;28;20025;-66
2022/01/19 06:05:06;;;;;;;14.40;6.72;;;2.10;99.90;;;;;;5076291;28;20032;-66
2022/01/19 06:07:41;;;;;;;12.38;6.88;;;2.10;99.90;;;;;;5075987;28;20044;-66
2022/01/19 06:10:11;;;;;;;14.95;7.00;;;2.10;99.90;;;;;;5074907;28;20092;-66
2022/01/19 06:12:39;;;;;;;13.32;7.47;;;2.10;99.90;;;;;;5078971;28;20405;-66
2022/01/19 06:15:07;;;;;;;12.43;4.90;;;2.10;99.90;;;;;;5079952;28;20017;-66
2022/01/19 06:17:34;;;;;;;16.05;6.65;;;2.10;99.90;;;;;;5080828;28;20095;-66
2022/01/19 06:20:01;;;;;;;12.35;6.18;;;2.20;99.90;;;;;;5080423;28;20025;-66
2022/01/19 06:22:29;;;;;;;10.65;6.30;;;2.20;99.90;;;;;;5088261;28;20368;-66
2022/01/19 06:24:57;;;;;;;16.20;8.57;;;2.20;99.90;;;;;;5101255;28;20052;-66
2022/01/19 06:27:24;;;;;;;14.50;7.18;;;2.20;99.90;;;;;;5101145;28;20028;-66
2022/01/19 06:29:51;;;;;;;14.25;6.25;;;2.20;99.90;;;;;;5100940;28;20028;-66
2022/01/19 06:32:18;;;;;;;12.80;6.88;;;2.20;99.90;;;;;;5100468;28;20097;-66
2022/01/19 06:34:46;;;;;;;10.98;6.68;;;2.20;99.90;;;;;;5100509;28;20052;-66
2022/01/19 06:37:13;;;;;;;12.18;6.82;;;2.20;99.90;;;;;;5100311;28;20031;-66
2022/01/19 06:39:41;;;;;;;9.50;5.32;;;2.20;99.90;;;;;;5099404;28;20028;-66
2022/01/19 06:42:08;;;;;;;11.52;6.65;;;2.20;99.90;;;;;;5082153;28;20024;-66
2022/01/19 06:44:35;;;;;;;12.38;6.70;;;2.20;99.90;;;;;;5100006;28;20104;-66
2022/01/19 06:47:03;;;;;;;11.63;6.32;;;2.20;99.90;;;;;;5100149;28;20024;-66
2022/01/19 06:49:30;;;;;;;11.38;6.30;;;2.30;99.90;;;;;;5099655;28;20022;-66
2022/01/19 06:51:58;;;;;;;8.85;5.47;;;2.30;99.90;;;;;;5081232;28;20020;-66
2022/01/19 06:54:25;;;;;;;13.77;6.22;;;2.30;99.90;;;;;;5099179;28;20028;-66
2022/01/19 06:56:52;;;;;;;10.05;5.85;;;2.30;99.90;;;;;;5099294;28;20035;-67
2022/01/19 06:59:20;;;;;;;18.00;9.82;;;2.30;99.90;;;;;;5100343;28;20107;-66
2022/01/19 07:01:47;;;;;;;12.88;7.18;;;2.30;99.90;;;;;;5099961;28;20085;-68
2022/01/19 07:04:16;;;;;;;13.00;7.50;;;2.30;99.90;;;;;;5099896;28;20065;-66
2022/01/19 07:06:44;;;;;;;10.95;6.45;;;2.30;99.90;;;;;;5099680;28;20016;-67
2022/01/19 07:09:11;;;;;;;12.93;6.28;;;2.30;99.90;;;;;;5099858;28;20020;-68
2022/01/19 07:11:38;;;;;;;16.27;8.00;;;2.30;99.90;;;;;;5081982;28;20383;-69
2022/01/19 07:14:08;;;;;;;22.27;10.70;;;2.30;99.90;;;;;;5081887;28;20420;-70
2022/01/19 07:16:36;;;;;;;15.23;7.85;;;2.30;99.90;;;;;;5099773;28;20462;-70
2022/01/19 07:19:03;;;;;;;14.10;7.70;;;2.30;99.90;;;;;;5081138;28;20066;-70
2022/01/19 07:21:30;;;;;;;12.48;6.93;;;2.30;99.90;;;;;;5080734;28;20060;-70
2022/01/19 07:23:58;;;;;;;9.93;5.75;;;2.40;99.90;;;;;;5076649;28;20044;-70
2022/01/19 07:26:25;;;;;;;14.45;7.65;;;2.40;99.90;;;;;;5078372;28;20040;-69
2022/01/19 07:28:53;;;;;;;12.38;6.80;;;2.40;99.90;;;;;;5079103;28;20017;-70
2022/01/19 07:31:20;;;;;;;10.63;5.80;;;2.40;99.90;;;;;;5077359;28;20100;-69
2022/01/19 07:33:48;;;;;;;7.45;4.50;;;2.40;99.90;;;;;;5078861;28;20024;-70
2022/01/19 07:36:16;;;;;;;5.53;3.50;;;2.50;99.90;;;;;;5078227;28;20351;-66
2022/01/19 07:38:44;;;;;;;7.80;4.53;;;2.50;99.90;;;;;;5078481;28;20048;-68
2022/01/19 07:41:11;;;;;;;6.78;4.35;;;2.50;99.90;;;;;;5078577;28;20039;-69
2022/01/19 07:43:39;;;;;;;7.28;4.88;;;2.50;99.90;;;;;;5077974;28;20059;-69
2022/01/19 07:46:06;;;;;;;8.98;4.75;;;2.60;99.90;;;;;;5078936;28;20082;-69
2022/01/19 07:48:33;;;;;;;8.23;4.40;;;2.60;99.90;;;;;;5078006;28;20032;-68
2022/01/19 07:51:00;;;;;;;8.25;4.82;;;2.60;99.90;;;;;;5077757;28;20025;-68
2022/01/19 07:53:28;;;;;;;7.03;4.05;;;2.60;99.90;;;;;;5094606;28;20028;-69
2022/01/19 07:55:55;;;;;;;7.75;5.18;;;2.60;99.90;;;;;;5077639;28;20048;-69
2022/01/19 07:58:22;;;;;;;9.30;4.57;;;2.60;99.90;;;;;;5077786;28;20024;-69
2022/01/19 08:00:50;;;;;;;7.20;5.18;;;2.60;99.90;;;;;;5078052;28;20020;-68
2022/01/19 08:03:18;;;;;;;6.65;4.00;;;2.70;99.90;;;;;;5076467;28;20028;-67
2022/01/19 08:05:45;;;;;;;7.07;4.38;;;2.70;99.90;;;;;;5077542;28;20017;-67
2022/01/19 08:08:13;;;;;;;6.20;3.53;;;2.70;99.90;;;;;;5078119;28;20027;-67
2022/01/19 08:10:42;;;;;;;8.10;4.40;;;2.80;99.90;;;;;;5078009;28;20024;-67
2022/01/19 08:13:10;;;;;;;8.45;4.20;;;2.80;99.90;;;;;;5076471;28;20021;-67
2022/01/19 08:15:38;;;;;;;5.93;3.95;;;2.80;99.90;;;;;;5077452;28;20025;-67
2022/01/19 08:18:06;;;;;;;5.30;3.65;;;2.80;99.90;;;;;;5077533;28;20324;-67
2022/01/19 08:20:33;;;;;;;4.93;3.63;;;2.80;99.90;;;;;;5076119;28;20438;-68
2022/01/19 08:23:00;;;;;;;6.43;4.22;;;2.80;99.90;;;;;;5090034;28;20055;-67
2022/01/19 08:25:27;;;;;;;7.50;3.83;;;2.90;99.90;;;;;;5098912;28;20020;-67
2022/01/19 08:27:55;;;;;;;5.38;3.15;;;2.90;99.90;;;;;;5098612;28;20412;-67
2022/01/19 08:30:22;;;;;;;7.90;4.25;;;2.90;99.90;;;;;;5098316;28;20031;-66
2022/01/19 08:32:49;;;;;;;5.60;3.60;;;2.90;99.90;;;;;;5080357;28;20054;-66
2022/01/19 08:35:17;;;;;;;5.25;3.42;;;2.90;99.90;;;;;;5080137;28;20091;-67
2022/01/19 08:37:44;;;;;;;6.70;3.42;;;2.90;99.90;;;;;;5098360;28;20024;-67
2022/01/19 08:40:13;;;;;;;4.53;3.22;;;3.00;99.90;;;;;;5098014;28;20027;-68
2022/01/19 08:42:40;;;;;;;6.20;4.00;;;3.00;99.90;;;;;;5097494;28;20035;-67
2022/01/19 08:45:09;;;;;;;6.45;3.65;;;3.00;99.90;;;;;;5079131;28;20436;-67
2022/01/19 08:47:38;;;;;;;7.75;3.90;;;3.10;99.90;;;;;;5097828;28;20357;-67
2022/01/19 08:50:10;;;;;;;5.45;3.42;;;3.00;99.90;;;;;;5096980;28;20031;-67
2022/01/19 08:52:37;;;;;;;4.90;3.50;;;3.10;99.90;;;;;;5096999;28;20053;-67
2022/01/19 08:55:05;;;;;;;6.38;4.80;;;3.10;99.90;;;;;;5079024;28;20028;-67
2022/01/19 08:57:33;;;;;;;5.95;3.70;;;3.10;99.90;;;;;;5097182;28;20020;-70
2022/01/19 09:00:00;;;;;;;5.18;3.80;;;3.10;99.90;;;;;;5079049;28;20412;-67
2022/01/19 09:02:27;;;;;;;6.03;4.00;;;3.20;99.90;;;;;;5096711;28;20024;-67
2022/01/19 09:04:55;;;;;;;8.18;3.42;;;3.20;99.90;;;;;;5080143;28;20023;-68
2022/01/19 09:07:22;;;;;;;6.20;4.30;;;3.20;99.90;;;;;;5097862;28;20032;-67
2022/01/19 09:09:50;;;;;;;6.40;3.70;;;3.20;99.90;;;;;;5097670;28;20027;-68
2022/01/19 09:12:17;;;;;;;5.57;4.03;;;3.20;99.90;;;;;;5079838;28;20031;-68
2022/01/19 09:14:44;;;;;;;5.38;3.63;;;3.30;99.90;;;;;;5097638;28;20354;-68
2022/01/19 09:17:12;;;;;;;5.88;3.55;;;3.30;99.90;;;;;;5098062;28;20095;-68
2022/01/19 09:19:39;;;;;;;7.78;4.32;;;3.30;99.90;;;;;;5097655;28;20028;-68
2022/01/19 09:22:09;;;;;;;5.13;3.10;;;3.30;99.90;;;;;;5097286;28;20454;-68
2022/01/19 09:24:39;;;;;;;7.40;3.70;;;3.30;99.90;;;;;;5096846;28;20024;-67
2022/01/19 09:27:11;;;;;;;5.85;3.85;;;3.20;99.90;;;;;;5097316;28;20017;-67
2022/01/19 09:29:42;;;;;;;5.93;3.60;;;3.20;99.90;;;;;;5079284;28;20074;-67
2022/01/19 09:32:11;;;;;;;5.90;3.35;;;3.20;99.90;;;;;;5096878;28;20024;-67
2022/01/19 09:34:42;;;;;;;5.80;3.90;;;3.20;99.90;;;;;;5096464;28;20024;-67
2022/01/19 09:37:17;;;;;;;5.38;3.95;;;3.20;99.90;;;;;;5096624;28;20059;-67
2022/01/19 09:39:45;;;;;;;7.00;4.70;;;3.20;99.90;;;;;;5096988;28;20027;-67
2022/01/19 09:42:13;;;;;;;7.45;4.47;;;3.20;99.90;;;;;;5078647;28;20028;-67
2022/01/19 09:44:40;;;;;;;5.25;3.55;;;3.20;99.90;;;;;;5079340;28;20027;-67
2022/01/19 09:47:08;;;;;;;7.05;3.78;;;3.20;99.90;;;;;;5100352;28;20017;-67
2022/01/19 09:49:36;;;;;;;6.70;4.05;;;3.30;99.90;;;;;;5102021;28;20019;-67
2022/01/19 09:52:05;;;;;;;7.65;4.13;;;3.30;99.90;;;;;;5101327;28;20051;-67
2022/01/19 09:54:32;;;;;;;6.53;3.45;;;3.30;99.90;;;;;;5101279;28;20110;-67
2022/01/19 09:57:00;;;;;;;6.90;3.80;;;3.30;99.90;;;;;;5083327;28;20034;-67
2022/01/19 09:59:27;;;;;;;5.78;3.38;;;3.30;99.90;;;;;;5066534;28;20024;-69
2022/01/19 10:02:03;;;;;;;5.13;3.30;;;3.30;99.90;;;;;;5101438;28;20035;-67
2022/01/19 10:04:41;;;;;;;4.53;2.95;;;3.30;99.90;;;;;;5083224;28;20367;-67
2022/01/19 10:07:14;;;;;;;6.13;3.75;;;3.30;99.90;;;;;;5100656;28;20423;-67
2022/01/19 10:10:07;;;;;;;7.80;4.25;;;3.30;99.90;;;;;;5100479;28;20376;-67
2022/01/19 10:18:33;;;;;;;5.35;3.40;;;3.30;99.90;;;;;;5085160;28;20456;-67
2022/01/19 10:21:16;;;;;;;4.75;3.70;;;3.30;99.90;;;;;;5099800;28;20416;-67
2022/01/19 10:23:48;;;;;;;5.63;4.00;;;3.30;99.90;;;;;;5099613;28;20079;-67
2022/01/19 10:26:25;;;;;;;9.18;4.90;;;3.30;99.90;;;;;;5099624;28;20066;-67
2022/01/19 10:29:10;;;;;;;6.78;3.67;;;3.30;99.90;;;;;;5100352;28;20024;-68
2022/01/19 10:31:40;;;;;;;5.38;4.07;;;3.30;99.90;;;;;;5100629;28;20373;-68
2022/01/19 10:34:17;;;;;;;5.50;3.83;;;3.30;99.90;;;;;;5100678;28;20032;-68
2022/01/19 10:36:55;;;;;;;6.70;4.47;;;3.30;99.90;;;;;;5100497;28;20136;-68
2022/01/19 10:39:38;;;;;;;6.78;3.78;;;3.30;99.90;;;;;;5100558;28;20028;-68
2022/01/19 10:42:16;;;;;;;9.60;4.03;;;3.30;99.90;;;;;;5100544;28;20301;-67
2022/01/19 10:44:46;;;;;;;5.28;3.97;;;3.40;99.90;;;;;;5100930;28;20031;-68
2022/01/19 10:47:17;;;;;;;5.60;4.65;;;3.50;99.90;;;;;;5082348;28;20041;-67
2022/01/19 10:49:54;;;;;;;6.57;4.05;;;3.50;99.90;;;;;;5099374;28;20028;-67
2022/01/19 10:52:35;;;;;;;7.38;5.15;;;3.50;99.90;;;;;;5099441;28;20035;-67
2022/01/19 10:55:05;;;;;;;7.00;5.32;;;3.60;99.90;;;;;;5081246;28;20427;-67
2022/01/19 10:57:36;;;;;;;4.82;3.58;;;3.50;99.90;;;;;;5098377;28;20058;-67
2022/01/19 11:00:28;;;;;;;5.93;4.78;;;3.60;99.90;;;;;;5081205;28;20448;-68
2022/01/19 11:03:17;;;;;;;8.10;4.28;;;3.60;99.90;;;;;;5099392;28;20035;-68
2022/01/19 11:05:54;;;;;;;8.35;4.45;;;3.60;99.90;;;;;;5099020;28;20035;-68
2022/01/19 11:08:24;;;;;;;4.97;4.05;;;3.60;99.90;;;;;;5081089;28;20044;-68
2022/01/19 11:10:54;;;;;;;6.13;4.32;;;3.70;99.90;;;;;;5099292;28;20020;-70
2022/01/19 11:13:40;;;;;;;6.68;4.85;;;3.70;99.90;;;;;;5099854;28;20024;-68
2022/01/19 11:16:08;;;;;;;6.40;4.70;;;3.70;99.90;;;;;;5066444;28;20035;-67
2022/01/19 11:18:39;;;;;;;8.45;5.18;;;3.80;99.90;;;;;;5081880;28;20046;-68
2022/01/19 11:21:12;;;;;;;6.53;4.78;;;3.70;99.90;;;;;;5100192;28;20115;-68
2022/01/19 11:24:10;;;;;;;7.18;4.68;;;3.80;99.90;;;;;;5099421;28;20047;-68
2022/01/19 11:26:37;;;;;;;7.15;4.65;;;3.80;99.90;;;;;;5100432;28;20020;-68
2022/01/19 11:29:23;;;;;;;8.98;5.10;;;3.80;99.90;;;;;;5099867;28;20412;-68
2022/01/19 11:31:54;;;;;;;8.18;4.47;;;3.80;99.90;;;;;;5098832;28;20032;-68
2022/01/19 11:34:42;;;;;;;7.57;4.25;;;3.80;99.90;;;;;;5098540;28;20028;-68
2022/01/19 11:37:09;;;;;;;5.88;4.15;;;3.80;99.90;;;;;;5098442;28;20024;-68
2022/01/19 11:39:37;;;;;;;10.23;5.47;;;3.80;99.90;;;;;;5098327;28;20063;-68
2022/01/19 11:42:07;;;;;;;11.30;5.25;;;3.80;99.90;;;;;;5099041;28;20020;-68
2022/01/19 11:44:35;;;;;;;7.50;4.93;;;3.70;99.90;;;;;;5098323;28;20020;-68
2022/01/19 11:47:23;;;;;;;5.97;4.05;;;3.70;99.90;;;;;;5098835;28;20293;-71
2022/01/19 11:49:57;;;;;;;6.32;4.07;;;3.70;99.90;;;;;;5098225;28;20022;-68
2022/01/19 11:52:46;;;;;;;9.05;5.18;;;3.70;99.90;;;;;;5098287;28;20052;-68
2022/01/19 11:55:28;;;;;;;6.90;4.45;;;3.70;99.90;;;;;;5098537;28;20451;-67
2022/01/19 11:58:20;;;;;;;7.53;4.70;;;3.70;99.90;;;;;;5099781;28;20032;-67
2022/01/19 12:00:54;;;;;;;10.15;6.15;;;3.60;99.90;;;;;;5099133;28;20027;-70
2022/01/19 12:03:28;;;;;;;7.57;5.20;;;3.60;99.90;;;;;;5099671;28;20066;-67
2022/01/19 12:05:56;;;;;;;10.52;5.97;;;3.60;99.90;;;;;;5080905;28;20077;-68
2022/01/19 12:08:29;;;;;;;11.90;5.57;;;3.60;99.90;;;;;;5098629;28;20032;-67
2022/01/19 12:11:01;;;;;;;8.15;5.43;;;3.60;99.90;;;;;;5098742;28;20054;-67
2022/01/19 12:16:34;;;;;;;;;;;3.60;99.90;;;;;;5098181;28;20038;-68
2022/01/19 12:19:23;;;;;;;7.43;4.93;;;3.60;99.90;;;;;;5097545;28;19911;-68
2022/01/19 12:22:05;;;;;;;8.73;4.90;;;3.70;99.90;;;;;;5097481;28;20028;-68
2022/01/19 12:24:44;;;;;;;8.95;5.38;;;3.60;99.90;;;;;;5097342;28;20469;-68
2022/01/19 12:27:15;;;;;;;11.30;6.05;;;3.60;99.90;;;;;;5097383;28;20027;-68
2022/01/19 12:29:53;;;;;;;9.43;5.40;;;3.70;99.90;;;;;;5097717;28;20024;-68
2022/01/19 12:32:21;;;;;;;9.35;5.68;;;3.60;99.90;;;;;;5079613;28;20111;-67
2022/01/19 12:34:56;;;;;;;9.93;6.43;;;3.60;99.90;;;;;;5097328;28;20028;-68
2022/01/19 12:37:33;;;;;;;9.82;6.25;;;3.60;99.90;;;;;;5098053;28;20028;-68
2022/01/19 12:40:06;;;;;;;10.57;7.38;;;3.70;99.90;;;;;;5098722;28;20027;-68
2022/01/19 12:42:55;;;;;;;10.40;6.68;;;3.70;99.90;;;;;;5098791;28;20030;-67
2022/01/19 12:45:31;;;;;;;8.48;5.03;;;3.60;99.90;;;;;;5098688;28;20304;-67
2022/01/19 12:48:00;;;;;;;12.10;7.95;;;3.60;99.90;;;;;;5080225;28;20338;-67
2022/01/19 12:50:30;;;;;;;11.93;8.07;;;3.60;99.90;;;;;;5098024;28;20305;-67
2022/01/19 12:53:01;;;;;;;11.43;7.78;;;3.50;99.90;;;;;;5098859;28;20024;-67
2022/01/19 12:55:33;;;;;;;14.35;8.15;;;3.50;99.90;;;;;;5098514;28;20036;-68
2022/01/19 12:58:10;;;;;;;14.93;7.47;;;3.50;99.90;;;;;;5079164;28;20069;-68
2022/01/19 13:00:39;;;;;;;11.93;7.65;;;3.50;99.90;;;;;;5097215;28;20434;-68
2022/01/19 13:03:21;;;;;;;10.95;6.65;;;3.50;99.90;;;;;;5097057;28;20024;-68
2022/01/19 13:06:00;;;;;;;15.15;9.10;;;3.50;99.90;;;;;;5096868;28;20047;-68
2022/01/19 13:08:37;;;;;;;14.85;8.75;;;3.50;99.90;;;;;;5080220;28;20020;-73
2022/01/19 13:11:32;;;;;;;16.75;10.60;;;3.50;99.90;;;;;;5096675;28;20032;-68
2022/01/19 13:14:06;;;;;;;18.83;10.85;;;3.50;99.90;;;;;;5087671;28;20032;-68
2022/01/19 13:16:38;;;;;;;13.52;7.63;;;3.50;99.90;;;;;;5096619;28;20028;-68
2022/01/19 13:19:22;;;;;;;17.27;10.63;;;3.50;99.90;;;;;;5096805;28;20046;-68
2022/01/19 13:22:01;;;;;;;18.85;9.80;;;3.50;99.90;;;;;;5096969;28;20455;-67
2022/01/19 13:24:32;;;;;;;17.08;9.77;;;3.50;99.90;;;;;;5097391;28;20035;-68
2022/01/19 13:27:03;;;;;;;15.98;9.02;;;3.50;99.90;;;;;;5098090;28;20016;-68
2022/01/19 13:29:39;;;;;;;18.63;10.75;;;3.50;99.90;;;;;;5097477;28;20328;-68
2022/01/19 13:32:13;;;;;;;;;;;3.50;99.90;;;;;;5097807;28;20415;-66
2022/01/19 13:34:54;;;;;;;19.98;9.05;;;3.50;99.90;;;;;;5079583;28;20302;-66
2022/01/19 13:37:37;;;;;;;18.30;9.35;;;3.50;99.90;;;;;;5097375;28;20030;-68
2022/01/19 13:40:10;;;;;;;17.08;9.00;;;3.50;99.90;;;;;;5097020;28;20035;-68
2022/01/19 13:42:51;;;;;;;17.70;9.25;;;3.50;99.90;;;;;;5096377;28;20032;-68
2022/01/19 13:45:48;;;;;;;17.95;9.30;;;3.50;99.90;;;;;;5096497;28;20473;-68
2022/01/19 13:50:50;;;;;;;20.02;9.05;;;3.40;99.90;;;;;;5096492;28;20032;-68
2022/01/19 13:53:40;;;;;;;18.77;9.68;;;3.40;99.90;;;;;;5096390;28;20028;-68
2022/01/19 13:56:14;;;;;;;22.10;10.38;;;3.50;99.90;;;;;;5096355;28;20055;-68
2022/01/19 13:58:44;;;;;;;17.48;8.80;;;3.40;99.90;;;;;;5096267;28;20031;-68
2022/01/19 14:01:19;;;;;;;18.05;9.75;;;3.40;99.90;;;;;;5096198;28;20379;-68
2022/01/19 14:04:04;;;;;;;17.33;8.45;;;3.40;99.90;;;;;;5097015;28;20489;-68
2022/01/19 14:06:37;;;;;;;22.70;10.43;;;3.40;99.90;;;;;;5097252;28;20110;-68
2022/01/19 14:09:33;;;;;;;20.25;11.02;;;3.40;99.90;;;;;;5097691;28;20016;-68
2022/01/19 14:12:11;;;;;;;18.45;7.70;;;3.40;99.90;;;;;;5097730;28;20107;-68
2022/01/19 14:14:59;;;;;;;14.07;8.45;;;3.40;99.90;;;;;;5097127;28;20409;-68
2022/01/19 14:17:40;;;;;;;18.65;9.93;;;3.40;99.90;;;;;;5097382;28;20354;-68
2022/01/19 14:20:22;;;;;;;14.88;8.25;;;3.40;99.90;;;;;;5096935;28;20097;-68
2022/01/19 14:22:51;;;;;;;20.88;10.35;;;3.30;99.90;;;;;;5096338;28;20054;-68
2022/01/19 14:25:24;;;;;;;19.88;10.93;;;3.30;99.90;;;;;;5095915;28;20032;-68
2022/01/19 14:27:53;;;;;;;19.15;10.85;;;3.30;99.90;;;;;;5096294;28;20038;-68
2022/01/19 14:30:32;;;;;;;21.35;10.63;;;3.30;99.90;;;;;;5097112;28;20024;-68
2022/01/19 14:33:13;;;;;;;20.95;10.15;;;3.30;99.90;;;;;;5080166;28;20420;-68
2022/01/19 14:35:42;;;;;;;22.40;11.70;;;3.30;99.90;;;;;;5099548;28;20036;-68